Time;durP1;ratioP1;P1;durP2;ratioP2;P2;SDS_P1;SDS_P2;PMS_P1;PMS_P2;Temp;Humidity;BMP_temperature;BMP_pressure;BME280_temperature;BME280_humidity;BME280_pressure;Samples;Min_cycle;Max_cycle;Signal;HPM_P1;HPM_P2
2021/05/16 00:01:59;;;;;;;7.10;4.80;;;;;;;;;;6247841;22;20365;-86
2021/05/16 00:04:26;;;;;;;7.53;5.00;;;;;;;;;;6274502;22;20346;-87
2021/05/16 00:06:53;;;;;;;4.93;4.53;;;;;;;;;;6247326;22;20343;-87
2021/05/16 00:09:18;;;;;;;6.45;5.15;;;;;;;;;;6273960;22;20339;-85
2021/05/16 00:11:44;;;;;;;6.22;4.65;;;;;;;;;;6274441;22;20643;-85
2021/05/16 00:14:11;;;;;;;5.35;4.85;;;;;;;;;;6247411;22;20367;-87
2021/05/16 00:16:37;;;;;;;5.67;4.90;;;;;;;;;;6247219;22;20353;-84
2021/05/16 00:19:03;;;;;;;7.70;5.18;;;;;;;;;;6274046;22;20339;-86
2021/05/16 00:21:29;;;;;;;5.53;4.50;;;;;;;;;;6273979;22;20362;-87
2021/05/16 00:23:55;;;;;;;9.07;4.85;;;;;;;;;;6274056;22;20346;-86
2021/05/16 00:26:21;;;;;;;5.45;4.43;;;;;;;;;;6273932;22;20342;-85
2021/05/16 00:28:47;;;;;;;5.25;4.75;;;;;;;;;;6247087;22;20339;-85
2021/05/16 00:31:13;;;;;;;6.75;5.20;;;;;;;;;;6246836;22;20431;-85
2021/05/16 00:33:39;;;;;;;5.55;4.40;;;;;;;;;;6246946;22;20370;-85
2021/05/16 00:36:06;;;;;;;5.10;4.30;;;;;;;;;;6247036;22;20650;-84
2021/05/16 00:38:31;;;;;;;5.00;4.50;;;;;;;;;;6247178;22;20343;-86
2021/05/16 00:40:57;;;;;;;4.97;4.55;;;;;;;;;;6246815;22;20397;-85
2021/05/16 00:43:23;;;;;;;5.30;4.32;;;;;;;;;;6247025;22;20357;-87
2021/05/16 00:45:49;;;;;;;5.80;3.90;;;;;;;;;;6274605;22;20384;-85
2021/05/16 00:48:15;;;;;;;4.80;4.40;;;;;;;;;;6247472;22;20661;-86
2021/05/16 00:50:43;;;;;;;5.07;4.50;;;;;;;;;;6247509;22;20347;-85
2021/05/16 00:53:10;;;;;;;6.18;4.90;;;;;;;;;;6247107;22;20374;-86
2021/05/16 00:55:37;;;;;;;5.63;4.60;;;;;;;;;;6247079;22;20362;-84
2021/05/16 00:58:03;;;;;;;6.43;4.80;;;;;;;;;;6247549;22;20351;-85
2021/05/16 01:00:32;;;;;;;5.63;4.38;;;;;;;;;;6274345;22;20339;-87
2021/05/16 01:02:58;;;;;;;4.88;4.47;;;;;;;;;;6247207;22;20331;-86
2021/05/16 01:05:24;;;;;;;4.80;4.00;;;;;;;;;;6247240;22;20642;-87
2021/05/16 01:07:52;;;;;;;4.60;4.20;;;;;;;;;;6273992;22;20342;-84
2021/05/16 01:10:20;;;;;;;4.50;4.00;;;;;;;;;;6247180;22;20713;-85
2021/05/16 01:12:49;;;;;;;5.05;4.10;;;;;;;;;;6246770;22;20363;-85
2021/05/16 01:15:17;;;;;;;4.93;4.43;;;;;;;;;;6247366;22;20370;-86
2021/05/16 01:17:43;;;;;;;6.03;4.15;;;;;;;;;;6247176;22;20360;-86
2021/05/16 01:20:10;;;;;;;4.57;4.18;;;;;;;;;;6273728;22;20433;-84
2021/05/16 01:22:36;;;;;;;5.85;4.18;;;;;;;;;;6246793;22;20338;-85
2021/05/16 01:25:03;;;;;;;4.18;3.88;;;;;;;;;;6273841;22;20334;-86
2021/05/16 01:27:29;;;;;;;4.53;3.95;;;;;;;;;;6273909;22;20342;-87
2021/05/16 01:29:55;;;;;;;4.95;4.30;;;;;;;;;;6273821;22;20335;-85
2021/05/16 01:32:22;;;;;;;4.70;4.30;;;;;;;;;;6273805;22;20346;-84
2021/05/16 01:34:49;;;;;;;6.00;4.47;;;;;;;;;;6246845;22;20394;-85
2021/05/16 01:37:15;;;;;;;4.53;4.13;;;;;;;;;;6246909;22;20382;-87
2021/05/16 01:39:44;;;;;;;5.43;4.30;;;;;;;;;;6246797;22;20405;-86
2021/05/16 01:42:10;;;;;;;5.00;4.50;;;;;;;;;;6273673;22;20414;-87
2021/05/16 01:44:36;;;;;;;6.18;4.65;;;;;;;;;;6246823;22;20342;-85
2021/05/16 01:47:03;;;;;;;5.45;4.70;;;;;;;;;;6247148;22;20346;-85
2021/05/16 01:49:35;;;;;;;5.60;4.70;;;;;;;;;;6273943;22;20337;-85
2021/05/16 01:52:01;;;;;;;4.90;4.50;;;;;;;;;;6246439;22;20369;-86
2021/05/16 01:54:27;;;;;;;4.90;4.50;;;;;;;;;;6273572;22;20817;-85
2021/05/16 01:56:53;;;;;;;7.00;4.88;;;;;;;;;;6246322;22;20409;-86
2021/05/16 01:59:20;;;;;;;5.40;4.80;;;;;;;;;;6246465;22;20402;-86
2021/05/16 02:01:46;;;;;;;8.50;4.80;;;;;;;;;;6246275;22;20737;-85
2021/05/16 02:04:12;;;;;;;5.35;4.85;;;;;;;;;;6246287;22;20365;-85
2021/05/16 02:06:39;;;;;;;5.57;4.50;;;;;;;;;;6273339;22;20532;-85
2021/05/16 02:09:06;;;;;;;5.07;4.57;;;;;;;;;;6246635;22;20350;-85
2021/05/16 02:11:32;;;;;;;5.78;4.28;;;;;;;;;;6246728;22;20357;-86
2021/05/16 02:13:58;;;;;;;4.38;3.97;;;;;;;;;;6246252;22;20363;-84
2021/05/16 02:16:23;;;;;;;4.93;4.10;;;;;;;;;;6273559;22;20339;-83
2021/05/16 02:18:50;;;;;;;5.93;4.30;;;;;;;;;;6273994;22;20362;-84
2021/05/16 02:21:16;;;;;;;5.68;3.78;;;;;;;;;;6246483;22;20343;-84
2021/05/16 02:23:42;;;;;;;4.78;4.00;;;;;;;;;;6273862;22;20354;-83
2021/05/16 02:26:08;;;;;;;4.00;3.70;;;;;;;;;;6246313;22;20876;-85
2021/05/16 02:28:34;;;;;;;4.72;3.70;;;;;;;;;;6273937;22;20346;-86
2021/05/16 02:31:05;;;;;;;4.15;3.65;;;;;;;;;;6246312;22;20354;-86
2021/05/16 02:33:31;;;;;;;3.93;3.63;;;;;;;;;;6248492;22;20808;-85
2021/05/16 02:35:57;;;;;;;4.53;3.70;;;;;;;;;;6277596;22;20335;-84
2021/05/16 02:38:23;;;;;;;6.15;3.80;;;;;;;;;;6277537;22;20846;-83
2021/05/16 02:40:49;;;;;;;4.28;3.70;;;;;;;;;;6277109;22;20338;-85
2021/05/16 02:43:15;;;;;;;4.30;3.90;;;;;;;;;;6249326;22;20338;-83
2021/05/16 02:45:41;;;;;;;4.88;3.83;;;;;;;;;;6248691;22;20346;-83
2021/05/16 02:48:08;;;;;;;6.38;3.80;;;;;;;;;;6275558;22;20334;-83
2021/05/16 02:50:34;;;;;;;4.30;3.90;;;;;;;;;;6248325;22;20647;-86
2021/05/16 02:53:00;;;;;;;6.10;4.00;;;;;;;;;;6275403;22;20357;-85
2021/05/16 02:55:26;;;;;;;4.10;3.70;;;;;;;;;;6248323;22;20421;-84
2021/05/16 02:57:52;;;;;;;4.65;4.00;;;;;;;;;;6275486;22;20352;-84
2021/05/16 03:00:18;;;;;;;4.70;4.30;;;;;;;;;;6275347;22;20654;-84
2021/05/16 03:02:44;;;;;;;4.43;3.95;;;;;;;;;;6248542;22;20407;-85
2021/05/16 03:05:10;;;;;;;6.83;3.50;;;;;;;;;;6276506;22;20346;-87
2021/05/16 03:07:36;;;;;;;4.40;3.80;;;;;;;;;;6249999;22;20442;-88
2021/05/16 03:10:03;;;;;;;6.57;3.90;;;;;;;;;;6248080;22;20335;-86
2021/05/16 03:12:29;;;;;;;5.35;3.83;;;;;;;;;;6248710;22;20334;-86
2021/05/16 03:14:55;;;;;;;4.10;3.70;;;;;;;;;;6278937;22;20342;-87
2021/05/16 03:17:21;;;;;;;4.28;3.88;;;;;;;;;;6252265;22;20335;-85
2021/05/16 03:19:47;;;;;;;6.70;4.13;;;;;;;;;;6252722;22;20374;-86
2021/05/16 03:22:13;;;;;;;4.05;3.63;;;;;;;;;;6278588;22;20351;-86
2021/05/16 03:24:39;;;;;;;6.75;3.67;;;;;;;;;;6278598;22;20334;-85
2021/05/16 03:27:05;;;;;;;5.33;3.93;;;;;;;;;;6251298;22;20357;-86
2021/05/16 03:29:32;;;;;;;7.47;4.50;;;;;;;;;;6247623;22;20347;-86
2021/05/16 03:31:59;;;;;;;4.43;4.03;;;;;;;;;;6275312;22;20343;-87
2021/05/16 03:34:25;;;;;;;5.45;4.18;;;;;;;;;;6248237;22;20858;-88
2021/05/16 03:36:51;;;;;;;4.32;3.75;;;;;;;;;;6247879;22;20346;-89
2021/05/16 03:39:17;;;;;;;4.28;3.78;;;;;;;;;;6247936;22;20370;-87
2021/05/16 03:41:43;;;;;;;4.43;3.50;;;;;;;;;;6247819;22;20674;-88
2021/05/16 03:44:09;;;;;;;4.10;3.70;;;;;;;;;;6248327;22;20354;-86
2021/05/16 03:46:35;;;;;;;6.32;4.00;;;;;;;;;;6248135;22;20677;-86
2021/05/16 03:49:01;;;;;;;4.30;3.90;;;;;;;;;;6247985;22;20335;-86
2021/05/16 03:51:28;;;;;;;4.25;3.92;;;;;;;;;;6248079;22;20811;-86
2021/05/16 03:53:54;;;;;;;4.53;3.95;;;;;;;;;;6248136;22;20454;-85
2021/05/16 03:56:20;;;;;;;3.95;3.55;;;;;;;;;;6275718;22;20375;-87
2021/05/16 03:58:46;;;;;;;4.47;3.90;;;;;;;;;;6278901;22;20341;-85
2021/05/16 04:01:12;;;;;;;6.30;4.00;;;;;;;;;;6252772;22;20392;-86
2021/05/16 04:03:38;;;;;;;3.70;3.40;;;;;;;;;;6253269;22;20339;-88
2021/05/16 04:06:04;;;;;;;3.72;3.33;;;;;;;;;;6251827;22;20338;-86
2021/05/16 04:08:30;;;;;;;4.15;3.80;;;;;;;;;;6288907;22;20373;-84
2021/05/16 04:10:56;;;;;;;4.20;3.80;;;;;;;;;;6261930;22;20365;-85
2021/05/16 04:13:23;;;;;;;5.28;3.58;;;;;;;;;;6288740;22;20416;-85
2021/05/16 04:15:49;;;;;;;4.68;4.18;;;;;;;;;;6264896;22;20350;-86
2021/05/16 04:18:15;;;;;;;4.10;3.80;;;;;;;;;;6284568;22;20331;-86
2021/05/16 04:20:41;;;;;;;4.50;4.05;;;;;;;;;;6274312;22;20337;-85
2021/05/16 04:23:07;;;;;;;4.93;3.83;;;;;;;;;;6247230;22;20347;-83
2021/05/16 04:25:32;;;;;;;4.80;4.00;;;;;;;;;;6274184;22;20340;-83
2021/05/16 04:27:58;;;;;;;4.22;3.60;;;;;;;;;;6274458;22;20845;-87
2021/05/16 04:30:25;;;;;;;4.20;3.80;;;;;;;;;;6247110;22;20397;-86
2021/05/16 04:32:51;;;;;;;5.22;3.80;;;;;;;;;;6274294;22;20350;-86
2021/05/16 04:35:17;;;;;;;6.80;4.50;;;;;;;;;;6247497;22;20357;-88
2021/05/16 04:37:44;;;;;;;4.18;3.85;;;;;;;;;;6274051;22;20342;-87
2021/05/16 04:40:10;;;;;;;4.18;3.75;;;;;;;;;;6246914;22;20354;-86
2021/05/16 04:42:36;;;;;;;4.45;4.05;;;;;;;;;;6247272;22;20339;-87
2021/05/16 04:45:02;;;;;;;4.30;3.90;;;;;;;;;;6274279;22;20345;-86
2021/05/16 04:47:28;;;;;;;4.47;4.07;;;;;;;;;;6247193;22;20388;-88
2021/05/16 04:49:54;;;;;;;5.53;5.03;;;;;;;;;;6246913;22;20821;-87
2021/05/16 04:52:20;;;;;;;8.13;6.43;;;;;;;;;;6273885;22;20359;-85
2021/05/16 04:54:46;;;;;;;9.55;7.47;;;;;;;;;;6246790;22;20384;-87
2021/05/16 04:57:12;;;;;;;9.30;6.85;;;;;;;;;;6246777;22;20346;-86
2021/05/16 04:59:38;;;;;;;10.43;7.95;;;;;;;;;;6273978;22;20377;-86
2021/05/16 05:02:06;;;;;;;10.35;8.18;;;;;;;;;;6246785;22;20342;-86
2021/05/16 05:04:32;;;;;;;9.95;7.78;;;;;;;;;;6246884;22;20377;-87
2021/05/16 05:06:58;;;;;;;10.03;7.53;;;;;;;;;;6246637;22;20397;-86
2021/05/16 05:09:24;;;;;;;8.73;7.37;;;;;;;;;;6247360;22;20348;-85
2021/05/16 05:11:52;;;;;;;8.63;6.87;;;;;;;;;;6246398;22;20863;-87
2021/05/16 05:14:18;;;;;;;8.05;6.50;;;;;;;;;;6246584;22;20358;-85
2021/05/16 05:16:45;;;;;;;8.25;6.50;;;;;;;;;;6273787;22;20811;-86
2021/05/16 05:19:11;;;;;;;6.75;5.90;;;;;;;;;;6246848;22;20334;-87
2021/05/16 05:21:37;;;;;;;5.32;4.82;;;;;;;;;;6246514;22;20340;-87
2021/05/16 05:24:03;;;;;;;5.10;4.60;;;;;;;;;;6246664;22;20345;-88
2021/05/16 05:26:29;;;;;;;5.35;4.28;;;;;;;;;;6273793;22;20341;-88
2021/05/16 05:28:55;;;;;;;4.22;3.83;;;;;;;;;;6273887;22;20335;-85
2021/05/16 05:31:20;;;;;;;3.90;3.22;;;;;;;;;;6273542;22;20872;-86
2021/05/16 05:33:46;;;;;;;4.30;3.13;;;;;;;;;;6273358;22;20386;-85
2021/05/16 05:36:13;;;;;;;3.15;2.85;;;;;;;;;;6246354;22;20493;-86
2021/05/16 05:38:39;;;;;;;3.70;2.80;;;;;;;;;;6273565;22;20330;-88
2021/05/16 05:41:05;;;;;;;3.50;3.03;;;;;;;;;;6246720;22;20338;-88
2021/05/16 05:43:31;;;;;;;3.63;2.43;;;;;;;;;;6273867;22;20816;-87
2021/05/16 05:45:57;;;;;;;3.03;2.63;;;;;;;;;;6246314;22;20342;-87
2021/05/16 05:48:23;;;;;;;4.35;2.50;;;;;;;;;;6246732;22;20343;-85
2021/05/16 05:50:49;;;;;;;3.90;2.67;;;;;;;;;;6246337;22;20395;-87
2021/05/16 05:53:15;;;;;;;3.40;2.30;;;;;;;;;;6246807;22;20371;-87
2021/05/16 05:55:41;;;;;;;3.37;2.30;;;;;;;;;;6246109;22;20709;-86
2021/05/16 05:58:07;;;;;;;3.08;2.63;;;;;;;;;;6273304;22;20350;-86
2021/05/16 06:00:33;;;;;;;2.40;2.20;;;;;;;;;;6273557;22;20343;-90
2021/05/16 06:03:00;;;;;;;3.22;2.05;;;;;;;;;;6246608;22;20643;-87
2021/05/16 06:05:26;;;;;;;2.30;2.10;;;;;;;;;;6246520;22;20373;-86
2021/05/16 06:07:53;;;;;;;2.00;1.80;;;;;;;;;;6246019;22;20362;-87
2021/05/16 06:10:19;;;;;;;3.17;2.20;;;;;;;;;;6246539;22;20361;-87
2021/05/16 06:12:45;;;;;;;3.30;1.90;;;;;;;;;;6273544;22;20401;-87
2021/05/16 06:15:11;;;;;;;3.00;2.30;;;;;;;;;;6246553;22;20449;-87
2021/05/16 06:17:37;;;;;;;4.25;2.25;;;;;;;;;;6246266;22;20342;-87
2021/05/16 06:20:04;;;;;;;3.70;2.27;;;;;;;;;;6246303;22;20454;-86
2021/05/16 06:22:30;;;;;;;2.97;2.20;;;;;;;;;;6273480;22;20334;-86
2021/05/16 06:24:56;;;;;;;2.70;1.60;;;;;;;;;;6245484;22;20654;-86
2021/05/16 06:27:22;;;;;;;2.30;1.90;;;;;;;;;;6273137;22;20343;-87
2021/05/16 06:29:47;;;;;;;3.53;2.00;;;;;;;;;;6273159;22;20338;-87
2021/05/16 06:32:13;;;;;;;1.90;1.60;;;;;;;;;;6245433;22;20825;-86
2021/05/16 06:34:39;;;;;;;3.47;2.00;;;;;;;;;;6243407;22;20371;-87
2021/05/16 06:37:06;;;;;;;4.22;2.25;;;;;;;;;;6245138;22;20350;-86
2021/05/16 06:39:32;;;;;;;2.75;2.10;;;;;;;;;;6271252;22;20425;-86
2021/05/16 06:41:58;;;;;;;3.80;1.98;;;;;;;;;;6272813;22;20338;-86
2021/05/16 06:44:25;;;;;;;2.58;2.38;;;;;;;;;;6245414;22;20362;-86
2021/05/16 06:46:51;;;;;;;2.33;2.13;;;;;;;;;;6272464;22;20343;-86
2021/05/16 06:49:17;;;;;;;2.13;1.90;;;;;;;;;;6245532;22;20347;-86
2021/05/16 06:51:43;;;;;;;3.83;2.35;;;;;;;;;;6273168;22;20334;-86
2021/05/16 06:54:09;;;;;;;2.50;2.30;;;;;;;;;;6245481;22;20370;-86
2021/05/16 06:56:36;;;;;;;3.20;2.25;;;;;;;;;;6272770;22;20361;-85
2021/05/16 06:59:02;;;;;;;2.88;2.47;;;;;;;;;;6271451;22;20667;-87
2021/05/16 07:01:28;;;;;;;3.22;2.40;;;;;;;;;;6244927;22;20366;-86
2021/05/16 07:03:54;;;;;;;3.72;2.50;;;;;;;;;;6271810;22;20334;-86
2021/05/16 07:06:20;;;;;;;3.25;2.10;;;;;;;;;;6271787;22;20347;-86
2021/05/16 07:08:49;;;;;;;2.72;2.30;;;;;;;;;;6245610;22;20382;-86
2021/05/16 07:11:15;;;;;;;2.90;2.17;;;;;;;;;;6245449;22;20662;-86
2021/05/16 07:13:41;;;;;;;2.50;2.30;;;;;;;;;;6245420;22;20417;-86
2021/05/16 07:16:07;;;;;;;4.00;2.20;;;;;;;;;;6245561;22;20343;-87
2021/05/16 07:18:33;;;;;;;3.65;2.25;;;;;;;;;;6246037;22;20812;-86
2021/05/16 07:20:59;;;;;;;2.72;1.98;;;;;;;;;;6247693;22;20342;-86
2021/05/16 07:23:25;;;;;;;3.92;1.88;;;;;;;;;;6247621;22;20805;-85
2021/05/16 07:25:51;;;;;;;3.80;2.08;;;;;;;;;;6274408;22;20334;-86
2021/05/16 07:28:17;;;;;;;4.22;2.00;;;;;;;;;;6247177;22;20361;-86
2021/05/16 07:30:43;;;;;;;2.15;1.95;;;;;;;;;;6274209;22;20342;-86
2021/05/16 07:33:10;;;;;;;2.20;2.00;;;;;;;;;;6274414;22;20390;-85
2021/05/16 07:35:36;;;;;;;2.33;1.80;;;;;;;;;;6246066;22;20334;-86
2021/05/16 07:38:02;;;;;;;2.60;1.90;;;;;;;;;;6245294;22;20894;-85
2021/05/16 07:40:28;;;;;;;3.00;1.90;;;;;;;;;;6246458;22;20374;-85
2021/05/16 07:42:54;;;;;;;2.55;2.10;;;;;;;;;;6271914;22;20789;-85
2021/05/16 07:45:21;;;;;;;3.47;2.20;;;;;;;;;;6271482;22;20350;-85
2021/05/16 07:47:47;;;;;;;2.30;1.90;;;;;;;;;;6246707;22;20378;-87
2021/05/16 07:50:13;;;;;;;2.95;2.10;;;;;;;;;;6247621;22;20343;-87
2021/05/16 07:52:39;;;;;;;2.85;2.20;;;;;;;;;;6246907;22;20393;-87
2021/05/16 07:55:06;;;;;;;2.67;2.08;;;;;;;;;;6274464;22;20821;-83
2021/05/16 07:57:32;;;;;;;3.10;2.40;;;;;;;;;;6246903;22;20335;-85
2021/05/16 07:59:58;;;;;;;3.43;2.00;;;;;;;;;;6273141;22;20361;-85
2021/05/16 08:02:24;;;;;;;2.10;1.90;;;;;;;;;;6270492;22;21175;-84
2021/05/16 08:04:50;;;;;;;2.83;2.17;;;;;;;;;;6271914;22;20963;-87
2021/05/16 08:07:16;;;;;;;3.60;1.87;;;;;;;;;;6274917;22;20327;-87
2021/05/16 08:09:43;;;;;;;2.00;1.80;;;;;;;;;;6275525;22;20331;-87
2021/05/16 08:12:10;;;;;;;2.20;1.88;;;;;;;;;;6246522;22;20408;-87
2021/05/16 08:14:37;;;;;;;2.80;1.80;;;;;;;;;;6247654;22;20670;-86
2021/05/16 08:17:04;;;;;;;3.78;1.73;;;;;;;;;;6248021;22;20712;-86
2021/05/16 08:19:30;;;;;;;2.67;1.98;;;;;;;;;;6274098;22;20338;-85
2021/05/16 08:21:56;;;;;;;2.60;1.88;;;;;;;;;;6274279;22;20335;-85
2021/05/16 08:24:22;;;;;;;4.13;2.10;;;;;;;;;;6246456;22;20678;-85
2021/05/16 08:26:48;;;;;;;4.43;2.22;;;;;;;;;;6271105;22;20363;-86
2021/05/16 08:29:16;;;;;;;4.65;2.30;;;;;;;;;;6268769;22;20350;-86
2021/05/16 08:31:45;;;;;;;3.75;2.35;;;;;;;;;;6244418;22;20704;-86
2021/05/16 08:34:11;;;;;;;3.55;2.08;;;;;;;;;;6273847;22;20394;-86
2021/05/16 08:36:38;;;;;;;3.90;2.00;;;;;;;;;;6269690;22;20338;-85
2021/05/16 08:39:06;;;;;;;4.75;1.92;;;;;;;;;;6244220;22;20441;-86
2021/05/16 08:41:35;;;;;;;5.18;2.10;;;;;;;;;;6273287;22;20383;-83
2021/05/16 08:44:02;;;;;;;3.72;2.20;;;;;;;;;;6272249;22;20433;-83
2021/05/16 08:46:28;;;;;;;4.85;2.20;;;;;;;;;;6273102;22;20339;-83
2021/05/16 08:48:54;;;;;;;4.45;2.13;;;;;;;;;;6272484;22;20436;-87
2021/05/16 08:51:20;;;;;;;4.38;2.20;;;;;;;;;;6245871;22;20678;-85
2021/05/16 08:53:46;;;;;;;4.43;2.10;;;;;;;;;;6245798;22;20856;-85
2021/05/16 08:56:12;;;;;;;2.97;1.75;;;;;;;;;;6272522;22;20726;-85
2021/05/16 08:58:38;;;;;;;3.65;2.10;;;;;;;;;;6272857;22;20334;-85
2021/05/16 09:01:24;;;;;;;3.33;1.80;;;;;;;;;;6272167;22;20413;-84
2021/05/16 09:03:50;;;;;;;5.00;2.07;;;;;;;;;;6273156;22;20349;-84
2021/05/16 09:06:17;;;;;;;3.70;1.95;;;;;;;;;;6245982;22;20388;-85
2021/05/16 09:08:43;;;;;;;4.25;2.10;;;;;;;;;;6273174;22;21130;-86
2021/05/16 09:11:09;;;;;;;4.90;2.17;;;;;;;;;;6273213;22;20339;-86
2021/05/16 09:13:35;;;;;;;3.13;1.90;;;;;;;;;;6272051;22;20399;-86
2021/05/16 09:16:06;;;;;;;3.33;2.10;;;;;;;;;;6272643;22;20883;-86
2021/05/16 09:18:37;;;;;;;3.90;1.98;;;;;;;;;;6272858;22;20339;-85
2021/05/16 09:21:22;;;;;;;3.63;2.10;;;;;;;;;;6272586;22;20730;-85
2021/05/16 09:23:52;;;;;;;5.45;2.28;;;;;;;;;;6245440;22;20661;-85
2021/05/16 09:26:18;;;;;;;3.63;2.20;;;;;;;;;;6245917;22;21161;-85
2021/05/16 09:28:44;;;;;;;5.70;2.10;;;;;;;;;;6245418;22;20399;-86
2021/05/16 09:31:10;;;;;;;7.95;2.30;;;;;;;;;;6244939;22;20400;-88
2021/05/16 09:33:36;;;;;;;4.82;2.22;;;;;;;;;;6272794;22;20370;-87
2021/05/16 09:36:08;;;;;;;4.97;2.10;;;;;;;;;;6245439;22;20813;-85
2021/05/16 09:57:14;;;;;;;7.85;2.70;;;;;;;;;;6251246;22;20389;-86
2021/05/16 09:59:46;;;;;;;7.30;2.40;;;;;;;;;;6230623;23;20400;-84
2021/05/16 10:02:15;;;;;;;6.80;2.40;;;;;;;;;;6238668;23;20394;-82
2021/05/16 10:04:47;;;;;;;7.67;2.77;;;;;;;;;;6240928;23;20368;-84
2021/05/16 10:07:13;;;;;;;5.73;2.00;;;;;;;;;;6236504;23;20354;-85
2021/05/16 10:09:39;;;;;;;6.38;2.40;;;;;;;;;;6235523;23;20364;-84
2021/05/16 10:12:06;;;;;;;8.20;2.35;;;;;;;;;;6237279;23;20469;-85
2021/05/16 10:14:35;;;;;;;5.35;2.17;;;;;;;;;;6236581;23;20372;-82
2021/05/16 10:17:02;;;;;;;5.78;2.08;;;;;;;;;;6236363;23;20346;-83
2021/05/16 10:19:33;;;;;;;6.07;1.80;;;;;;;;;;6237443;23;20332;-87
2021/05/16 10:22:16;;;;;;;4.53;1.60;;;;;;;;;;6238090;23;20340;-85
2021/05/16 10:24:43;;;;;;;4.35;1.60;;;;;;;;;;6236432;23;20352;-87
2021/05/16 10:27:23;;;;;;;4.68;1.80;;;;;;;;;;6236537;23;20701;-84
2021/05/16 10:29:57;;;;;;;4.10;1.90;;;;;;;;;;6238262;23;20428;-83
2021/05/16 10:32:24;;;;;;;5.97;1.90;;;;;;;;;;6237006;23;20371;-88
2021/05/16 10:34:59;;;;;;;4.82;2.55;;;;;;;;;;6236396;23;20376;-86
2021/05/16 10:37:47;;;;;;;4.22;1.70;;;;;;;;;;6237798;23;20394;-84
2021/05/16 10:40:13;;;;;;;4.53;1.90;;;;;;;;;;6237800;23;20787;-88
2021/05/16 10:42:44;;;;;;;5.22;2.10;;;;;;;;;;6239778;23;20662;-85
2021/05/16 10:45:14;;;;;;;4.18;1.90;;;;;;;;;;6240049;23;20394;-83
2021/05/16 10:50:10;;;;;;;4.32;1.80;;;;;;;;;;6249699;23;20806;-86
2021/05/16 10:52:36;;;;;;;4.50;2.10;;;;;;;;;;6237490;23;20344;-87
2021/05/16 10:55:03;;;;;;;5.90;1.95;;;;;;;;;;6239521;23;20679;-85
2021/05/16 10:57:36;;;;;;;5.90;1.67;;;;;;;;;;6243995;22;20796;-85
2021/05/16 11:00:21;;;;;;;4.82;1.63;;;;;;;;;;6270907;22;20331;-87
2021/05/16 11:03:07;;;;;;;4.43;1.48;;;;;;;;;;6245444;22;20354;-84
2021/05/16 11:08:12;;;;;;;4.33;1.70;;;;;;;;;;6273287;22;20409;-85
2021/05/16 11:10:39;;;;;;;4.97;1.90;;;;;;;;;;6246421;22;20357;-86
2021/05/16 11:13:09;;;;;;;5.40;1.90;;;;;;;;;;6272342;22;20358;-85
2021/05/16 11:15:35;;;;;;;4.55;1.70;;;;;;;;;;6272233;22;20731;-88
2021/05/16 11:18:01;;;;;;;4.55;1.60;;;;;;;;;;6246382;22;20819;-85
2021/05/16 11:20:27;;;;;;;5.18;1.83;;;;;;;;;;6245960;22;20362;-84
2021/05/16 11:22:56;;;;;;;6.50;1.70;;;;;;;;;;6272563;22;20331;-88
2021/05/16 11:25:26;;;;;;;6.60;1.90;;;;;;;;;;6245376;22;20357;-88
2021/05/16 11:27:52;;;;;;;3.78;1.60;;;;;;;;;;6244150;22;20478;-85
2021/05/16 11:30:21;;;;;;;4.57;1.70;;;;;;;;;;6272138;22;20326;-85
2021/05/16 11:32:48;;;;;;;3.60;1.50;;;;;;;;;;6271800;22;20335;-83
2021/05/16 11:35:16;;;;;;;5.72;2.03;;;;;;;;;;6245018;22;20346;-87
2021/05/16 11:37:43;;;;;;;5.22;2.00;;;;;;;;;;6245007;22;20347;-84
2021/05/16 11:40:17;;;;;;;4.60;1.60;;;;;;;;;;6245009;22;20480;-87
2021/05/16 11:42:43;;;;;;;4.35;1.80;;;;;;;;;;6245134;22;20338;-86
2021/05/16 11:45:10;;;;;;;5.75;2.00;;;;;;;;;;6272172;22;20327;-84
2021/05/16 11:47:41;;;;;;;4.85;1.77;;;;;;;;;;6271488;22;20426;-85
2021/05/16 11:50:08;;;;;;;4.65;1.70;;;;;;;;;;6272836;22;20867;-87
2021/05/16 11:52:34;;;;;;;3.90;1.73;;;;;;;;;;6244932;22;20343;-84
2021/05/16 11:55:06;;;;;;;3.53;1.20;;;;;;;;;;6272468;22;20389;-85
2021/05/16 11:57:33;;;;;;;2.95;1.20;;;;;;;;;;6272389;22;20334;-86
2021/05/16 11:59:59;;;;;;;3.17;1.30;;;;;;;;;;6245362;22;20342;-86
2021/05/16 12:02:25;;;;;;;2.50;1.00;;;;;;;;;;6245614;22;20343;-86
2021/05/16 12:04:51;;;;;;;2.23;1.07;;;;;;;;;;6244922;22;20344;-85
2021/05/16 12:07:27;;;;;;;2.45;0.88;;;;;;;;;;6245232;22;20441;-87
2021/05/16 12:09:53;;;;;;;3.67;0.90;;;;;;;;;;6244966;22;20872;-85
2021/05/16 12:12:20;;;;;;;4.43;1.80;;;;;;;;;;6272266;22;20341;-87
2021/05/16 12:14:46;;;;;;;2.63;1.13;;;;;;;;;;6272150;22;20359;-83
2021/05/16 12:17:15;;;;;;;2.70;1.00;;;;;;;;;;6273288;22;20339;-86
2021/05/16 12:19:43;;;;;;;2.80;0.88;;;;;;;;;;6273399;22;20350;-86
2021/05/16 12:22:11;;;;;;;2.85;1.00;;;;;;;;;;6273327;22;20331;-85
2021/05/16 12:24:43;;;;;;;3.28;1.00;;;;;;;;;;6245916;22;20855;-84
2021/05/16 12:27:11;;;;;;;2.42;1.10;;;;;;;;;;6273533;22;20412;-85
2021/05/16 12:29:38;;;;;;;2.90;0.95;;;;;;;;;;6273763;22;20598;-87
2021/05/16 12:32:04;;;;;;;2.20;0.95;;;;;;;;;;6246152;22;20343;-88
2021/05/16 12:34:31;;;;;;;3.00;0.95;;;;;;;;;;6273118;22;20354;-85
2021/05/16 12:36:58;;;;;;;2.25;1.10;;;;;;;;;;6246326;22;21110;-83
2021/05/16 12:39:38;;;;;;;4.63;2.40;;;;;;;;;;6246188;22;20355;-88
2021/05/16 12:42:24;;;;;;;2.50;1.13;;;;;;;;;;6246208;22;20350;-84
2021/05/16 12:44:50;;;;;;;2.40;1.03;;;;;;;;;;6244932;22;20346;-89
2021/05/16 12:47:23;;;;;;;3.42;1.10;;;;;;;;;;6245208;22;20385;-87
2021/05/16 12:49:50;;;;;;;2.60;1.10;;;;;;;;;;6272358;22;20388;-87
2021/05/16 12:52:24;;;;;;;3.40;1.23;;;;;;;;;;6245325;22;20346;-83
2021/05/16 12:54:50;;;;;;;2.35;1.02;;;;;;;;;;6244463;22;20381;-87
2021/05/16 12:57:26;;;;;;;3.60;1.17;;;;;;;;;;6272293;22;20414;-83
2021/05/16 12:59:52;;;;;;;5.82;1.27;;;;;;;;;;6244821;22;20396;-84
2021/05/16 13:02:18;;;;;;;2.83;1.20;;;;;;;;;;6245287;22;20347;-84
2021/05/16 13:04:48;;;;;;;4.43;1.17;;;;;;;;;;6243068;22;20388;-86
2021/05/16 13:07:30;;;;;;;2.70;1.40;;;;;;;;;;6244469;22;20408;-87
2021/05/16 13:09:56;;;;;;;2.97;1.23;;;;;;;;;;6242353;22;20353;-86
2021/05/16 13:12:25;;;;;;;4.15;1.63;;;;;;;;;;6272503;22;20782;-84
2021/05/16 13:14:54;;;;;;;3.90;1.20;;;;;;;;;;6270799;22;20354;-89
2021/05/16 13:17:21;;;;;;;4.80;1.30;;;;;;;;;;6244080;22;20350;-86
2021/05/16 13:19:54;;;;;;;3.22;1.80;;;;;;;;;;6271847;22;20812;-87
2021/05/16 13:22:33;;;;;;;5.67;1.67;;;;;;;;;;6245278;22;20343;-83
2021/05/16 13:25:00;;;;;;;3.78;1.55;;;;;;;;;;6244760;22;20350;-90
2021/05/16 13:27:26;;;;;;;3.88;1.25;;;;;;;;;;6234633;22;20350;-85
2021/05/16 13:29:57;;;;;;;5.05;1.50;;;;;;;;;;6241514;22;20386;-87
2021/05/16 13:32:24;;;;;;;4.88;1.42;;;;;;;;;;6242252;22;21190;-90
2021/05/16 13:34:50;;;;;;;3.25;1.40;;;;;;;;;;6242355;22;20477;-90
2021/05/16 13:37:16;;;;;;;4.22;1.88;;;;;;;;;;6243454;22;21527;-88
2021/05/16 13:39:42;;;;;;;5.25;1.60;;;;;;;;;;6242818;22;20416;-84
2021/05/16 13:42:09;;;;;;;4.35;1.67;;;;;;;;;;6242835;22;20808;-88
2021/05/16 13:44:35;;;;;;;3.47;1.55;;;;;;;;;;6269572;22;20792;-85
2021/05/16 13:47:01;;;;;;;4.32;1.70;;;;;;;;;;6242501;22;20347;-92
2021/05/16 13:49:28;;;;;;;3.20;1.35;;;;;;;;;;6242863;22;20386;-89
2021/05/16 13:51:54;;;;;;;4.28;1.60;;;;;;;;;;6243550;22;20358;-90
2021/05/16 13:54:22;;;;;;;5.30;1.65;;;;;;;;;;6269861;22;20816;-85
2021/05/16 13:56:48;;;;;;;4.07;1.70;;;;;;;;;;6269590;22;20415;-84
2021/05/16 13:59:14;;;;;;;5.68;2.00;;;;;;;;;;6242842;22;20349;-88
2021/05/16 14:01:41;;;;;;;4.78;1.63;;;;;;;;;;6269648;22;20731;-85
2021/05/16 14:04:07;;;;;;;4.20;1.53;;;;;;;;;;6242716;22;20363;-86
2021/05/16 14:06:33;;;;;;;5.03;1.63;;;;;;;;;;6242427;22;20465;-86
2021/05/16 14:09:00;;;;;;;4.95;1.58;;;;;;;;;;6269037;22;20331;-84
2021/05/16 14:11:26;;;;;;;4.50;1.58;;;;;;;;;;6269217;22;20363;-85
2021/05/16 14:13:52;;;;;;;6.50;1.77;;;;;;;;;;6242794;22;20366;-85
2021/05/16 14:16:18;;;;;;;4.38;1.40;;;;;;;;;;6242048;22;20356;-92
2021/05/16 14:18:44;;;;;;;4.53;1.50;;;;;;;;;;6243074;22;20433;-85
2021/05/16 14:21:10;;;;;;;4.35;1.63;;;;;;;;;;6242837;22;20355;-88
2021/05/16 14:23:36;;;;;;;4.97;1.45;;;;;;;;;;6243365;22;20378;-84
2021/05/16 14:26:03;;;;;;;6.72;1.90;;;;;;;;;;6269964;22;20334;-83
2021/05/16 14:28:30;;;;;;;5.00;1.48;;;;;;;;;;6243595;22;20416;-89
2021/05/16 14:30:57;;;;;;;4.65;1.70;;;;;;;;;;6242815;22;20723;-88
2021/05/16 14:33:23;;;;;;;7.03;1.95;;;;;;;;;;6241605;22;20373;-83
2021/05/16 14:35:50;;;;;;;4.28;1.67;;;;;;;;;;6268318;22;20338;-88
2021/05/16 14:38:16;;;;;;;3.80;1.63;;;;;;;;;;6269188;22;20867;-87
2021/05/16 14:40:42;;;;;;;4.63;1.48;;;;;;;;;;6241807;22;20346;-81
2021/05/16 14:43:09;;;;;;;7.97;1.85;;;;;;;;;;6267654;22;20327;-84
2021/05/16 14:45:35;;;;;;;4.95;1.75;;;;;;;;;;6241997;22;20416;-85
2021/05/16 14:48:01;;;;;;;5.53;1.80;;;;;;;;;;6242521;22;20833;-82
2021/05/16 14:50:41;;;;;;;5.75;1.75;;;;;;;;;;6241422;22;20403;-83
2021/05/16 14:53:09;;;;;;;4.85;1.50;;;;;;;;;;6267125;22;20836;-82
2021/05/16 14:55:36;;;;;;;5.15;1.95;;;;;;;;;;6239329;22;20382;-87
2021/05/16 14:58:02;;;;;;;4.73;1.67;;;;;;;;;;6241526;22;20347;-82
2021/05/16 15:00:28;;;;;;;5.45;1.92;;;;;;;;;;6241423;22;20357;-84
2021/05/16 15:02:54;;;;;;;6.20;2.30;;;;;;;;;;6267959;22;20392;-83
2021/05/16 15:05:20;;;;;;;6.10;1.90;;;;;;;;;;6269854;22;20340;-88
2021/05/16 15:07:46;;;;;;;3.92;1.90;;;;;;;;;;6241410;22;20347;-81